Time;durP1;ratioP1;P1;durP2;ratioP2;P2;SDS_P1;SDS_P2;PMS_P1;PMS_P2;Temp;Humidity;BMP_temperature;BMP_pressure;BME280_temperature;BME280_humidity;BME280_pressure;Samples;Min_cycle;Max_cycle;Signal;HPM_P1;HPM_P2
2022/10/02 00:00:06;;;;;;;0.82;0.80;;;;;;;14.11;77.84;100923.41;5059836;29;20055;-80
2022/10/02 00:02:54;;;;;;;0.68;0.68;;;;;;;14.22;77.28;100931.75;5071637;29;20040;-80
2022/10/02 00:05:56;;;;;;;0.80;0.77;;;;;;;14.25;76.90;100933.44;5081014;29;20042;-80
2022/10/02 00:08:40;;;;;;;2.53;0.57;;;;;;;14.19;78.18;100931.00;5087392;29;20135;-80
2022/10/02 00:11:21;;;;;;;1.65;1.55;;;;;;;14.13;78.87;100930.34;5084726;29;20074;-80
2022/10/02 00:13:56;;;;;;;1.35;1.08;;;;;;;14.13;78.59;100927.69;5055996;29;20043;-80
2022/10/02 00:16:38;;;;;;;0.45;0.45;;;;;;;14.03;80.01;100934.25;5067695;29;20045;-80
2022/10/02 00:19:11;;;;;;;0.73;0.73;;;;;;;14.00;80.20;100937.88;5069143;29;20055;-80
2022/10/02 00:22:00;;;;;;;0.50;0.50;;;;;;;14.02;80.04;100940.44;5084455;29;20039;-80
2022/10/02 00:24:46;;;;;;;1.02;0.73;;;;;;;14.07;79.44;100935.88;5066048;29;20051;-80
2022/10/02 00:27:58;;;;;;;0.82;0.82;;;;;;;14.10;80.29;100937.53;5057831;29;20043;-80
2022/10/02 00:30:35;;;;;;;0.65;0.65;;;;;;;14.10;80.41;100941.00;5073982;29;20043;-80
2022/10/02 00:33:38;;;;;;;1.85;1.50;;;;;;;14.06;80.56;100941.19;5054770;29;20044;-80
2022/10/02 00:36:26;;;;;;;0.50;0.50;;;;;;;14.07;80.71;100946.41;5108051;29;20152;-82
2022/10/02 00:39:12;;;;;;;2.28;1.27;;;;;;;14.09;80.66;100946.34;5055059;29;20078;-80
2022/10/02 00:42:08;;;;;;;0.77;0.77;;;;;;;14.09;81.14;100951.63;5047761;29;20067;-80
2022/10/02 00:44:48;;;;;;;1.00;1.00;;;;;;;14.23;80.18;100953.75;5050792;29;20047;-80
2022/10/02 00:47:31;;;;;;;1.65;0.98;;;;;;;14.16;80.52;100953.97;5052595;28;20039;-80
2022/10/02 00:50:15;;;;;;;0.63;0.63;;;;;;;14.30;79.85;100956.06;5090932;29;20518;-80
2022/10/02 00:53:12;;;;;;;6.47;2.08;;;;;;;14.14;81.59;100954.94;5052712;29;20040;-80
2022/10/02 00:56:22;;;;;;;0.57;0.40;;;;;;;14.09;82.00;100956.91;5083143;29;20051;-81
2022/10/02 00:59:04;;;;;;;3.60;2.83;;;;;;;14.08;81.90;100944.63;5083231;29;20067;-81
2022/10/02 01:01:52;;;;;;;7.50;3.30;;;;;;;14.08;82.18;100949.91;5091659;29;20048;-80
2022/10/02 01:04:32;;;;;;;0.60;0.60;;;;;;;14.16;81.10;100953.97;5087026;29;20570;-80
2022/10/02 01:07:10;;;;;;;0.80;0.57;;;;;;;14.24;80.31;100963.38;5054546;29;20036;-81
2022/10/02 01:09:40;;;;;;;1.85;0.93;;;;;;;14.27;80.43;100963.25;5071418;29;20483;-81
2022/10/02 01:12:12;;;;;;;8.80;2.50;;;;;;;14.21;81.16;100968.75;5086159;29;20043;-81
2022/10/02 01:14:43;;;;;;;6.30;1.02;;;;;;;14.21;81.25;100960.84;5077019;29;20035;-81
2022/10/02 01:17:28;;;;;;;0.70;0.70;;;;;;;14.21;80.97;100959.09;5076089;29;20062;-81
2022/10/02 01:20:03;;;;;;;3.78;1.85;;;;;;;14.23;81.34;100959.03;5086651;29;20039;-80
2022/10/02 01:22:58;;;;;;;0.60;0.60;;;;;;;14.24;81.09;100960.75;5068015;29;20062;-81
2022/10/02 01:25:29;;;;;;;0.40;0.40;;;;;;;14.21;81.30;100960.84;5084889;29;20036;-81
2022/10/02 01:27:59;;;;;;;1.15;1.05;;;;;;;14.25;81.19;100960.69;5074588;29;20541;-80
2022/10/02 01:30:32;;;;;;;2.10;1.25;;;;;;;14.14;82.34;100961.09;5068008;29;20092;-80
2022/10/02 01:33:04;;;;;;;0.82;0.82;;;;;;;14.16;82.22;100955.75;5059489;29;20533;-80
2022/10/02 01:35:37;;;;;;;5.05;1.75;;;;;;;14.21;81.88;100961.72;5052719;29;20050;-80
2022/10/02 01:38:13;;;;;;;0.30;0.30;;;;;;;14.11;82.79;100966.47;5071774;29;20418;-80
2022/10/02 01:40:43;;;;;;;1.63;1.30;;;;;;;14.12;82.81;100965.56;5065243;29;20108;-80
2022/10/02 01:43:26;;;;;;;1.95;1.85;;;;;;;14.10;82.87;100958.63;5069965;29;20051;-80
2022/10/02 01:46:20;;;;;;;0.73;0.73;;;;;;;14.11;82.61;100953.28;5075428;29;20070;-80
2022/10/02 01:49:19;;;;;;;0.73;0.73;;;;;;;14.09;83.16;100968.31;5058507;29;20051;-80
2022/10/02 01:51:52;;;;;;;15.45;1.40;;;;;;;14.14;82.91;100966.38;5081975;29;20063;-80
2022/10/02 01:54:38;;;;;;;6.40;2.15;;;;;;;14.09;83.67;100965.66;5059200;29;20059;-80
2022/10/02 01:57:20;;;;;;;12.40;0.90;;;;;;;14.21;82.36;100967.00;5089063;29;20121;-80
2022/10/02 02:00:09;;;;;;;1.00;0.93;;;;;;;14.11;83.56;100971.75;5054337;29;20120;-80
2022/10/02 02:03:14;;;;;;;0.98;0.95;;;;;;;14.22;82.73;100963.41;5072986;29;20048;-80
2022/10/02 02:06:22;;;;;;;1.13;1.13;;;;;;;14.19;83.18;100967.97;5060831;29;20040;-81
2022/10/02 02:09:19;;;;;;;1.58;1.50;;;;;;;14.17;82.88;100966.22;5072025;29;20107;-80
2022/10/02 02:12:01;;;;;;;4.38;2.22;;;;;;;14.15;83.26;100960.19;5077009;29;20039;-80
2022/10/02 02:14:36;;;;;;;2.20;1.73;;;;;;;14.17;83.02;100953.03;5092924;29;20127;-80
2022/10/02 02:17:25;;;;;;;0.30;0.30;;;;;;;14.19;82.79;100957.41;5073469;29;20042;-80
2022/10/02 02:20:01;;;;;;;1.75;1.48;;;;;;;14.21;82.88;100956.44;5073522;29;20039;-80
2022/10/02 02:22:37;;;;;;;1.92;1.75;;;;;;;14.17;82.84;100945.13;5055944;29;20051;-80
2022/10/02 02:25:14;;;;;;;13.82;1.33;;;;;;;14.16;82.93;100956.63;5107865;29;20034;-80
2022/10/02 02:27:50;;;;;;;1.17;1.08;;;;;;;14.20;82.61;100956.47;5078205;29;20046;-80
2022/10/02 02:30:23;;;;;;;0.55;0.55;;;;;;;14.23;82.29;100944.03;5077772;29;20052;-80
2022/10/02 02:33:00;;;;;;;0.80;0.80;;;;;;;14.15;83.26;100946.97;5069989;29;20135;-80
2022/10/02 02:35:45;;;;;;;1.88;1.77;;;;;;;14.15;83.17;100951.38;5095458;29;20036;-80
2022/10/02 02:38:23;;;;;;;1.08;0.63;;;;;;;14.15;83.11;100960.19;5079568;29;20139;-80
2022/10/02 02:40:58;;;;;;;1.27;1.17;;;;;;;14.17;83.50;100962.75;5090289;29;20770;-80
2022/10/02 02:44:13;;;;;;;2.08;0.68;;;;;;;14.13;83.56;100962.00;5071689;29;20580;-80
2022/10/02 02:47:03;;;;;;;;;;;;;;;14.14;83.04;100961.09;5006408;29;20057;-80
2022/10/02 02:49:36;;;;;;;0.57;0.45;;;;;;;14.21;83.21;100961.72;5004376;29;19920;-81
2022/10/02 02:52:12;;;;;;;8.70;2.40;;;;;;;14.26;82.63;100964.16;5069338;29;20043;-80
2022/10/02 02:54:53;;;;;;;6.63;2.13;;;;;;;14.26;82.60;100974.72;5065901;29;20032;-80
2022/10/02 02:57:40;;;;;;;11.70;2.63;;;;;;;14.25;82.92;100970.38;5055813;29;20161;-80
2022/10/02 03:00:14;;;;;;;0.80;0.80;;;;;;;14.17;83.98;100966.22;5072966;29;20067;-80
2022/10/02 03:02:45;;;;;;;1.95;1.27;;;;;;;14.27;82.73;100960.59;5068870;29;20047;-80
2022/10/02 03:05:17;;;;;;;0.77;0.77;;;;;;;14.23;83.67;100959.88;5075397;29;20082;-81
2022/10/02 03:08:01;;;;;;;1.05;0.77;;;;;;;14.25;83.05;100962.47;5104852;29;20122;-80
2022/10/02 03:11:14;;;;;;;1.08;1.08;;;;;;;14.22;83.89;100959.94;5088647;29;20035;-80
2022/10/02 03:14:06;;;;;;;0.65;0.65;;;;;;;14.22;84.71;100952.88;5087816;29;20068;-80
2022/10/02 03:16:52;;;;;;;1.75;1.40;;;;;;;14.28;84.16;100951.78;5071802;29;20044;-80
2022/10/02 03:19:47;;;;;;;1.30;0.80;;;;;;;14.20;84.82;100953.84;5071123;29;20138;-80
2022/10/02 03:22:18;;;;;;;0.93;0.93;;;;;;;14.26;84.74;100953.59;5076411;29;20051;-81
2022/10/02 03:24:58;;;;;;;5.10;2.20;;;;;;;14.26;84.61;100953.59;5095174;29;20027;-81
2022/10/02 03:27:42;;;;;;;0.60;0.60;;;;;;;14.24;84.62;100950.19;5114301;29;20104;-80
2022/10/02 03:30:19;;;;;;;1.85;0.52;;;;;;;14.36;83.17;100957.59;5111528;29;20055;-80
2022/10/02 03:32:52;;;;;;;0.98;0.98;;;;;;;14.22;84.75;100946.75;5091380;29;20040;-81
2022/10/02 03:35:24;;;;;;;0.65;0.65;;;;;;;14.19;84.54;100953.00;5079167;29;21019;-81
2022/10/02 03:37:59;;;;;;;1.35;1.17;;;;;;;14.23;84.18;100948.47;5106907;28;20075;-80
2022/10/02 03:40:29;;;;;;;1.77;1.67;;;;;;;14.17;84.14;100954.84;5073606;29;20123;-81
2022/10/02 03:43:00;;;;;;;0.55;0.55;;;;;;;14.14;84.34;100960.22;5071874;29;20130;-81
2022/10/02 03:45:30;;;;;;;0.20;0.20;;;;;;;14.20;84.33;100961.75;5061531;29;20384;-81
2022/10/02 03:48:01;;;;;;;6.40;0.73;;;;;;;14.19;84.23;100962.69;5090612;29;20479;-80
2022/10/02 03:50:31;;;;;;;0.43;0.43;;;;;;;14.22;83.63;100963.41;5090939;29;20043;-80
2022/10/02 03:53:11;;;;;;;6.65;0.82;;;;;;;14.21;84.02;100958.22;5075145;29;20127;-81
2022/10/02 03:55:46;;;;;;;0.40;0.40;;;;;;;14.15;85.24;100949.63;5106907;29;20206;-80
2022/10/02 03:58:17;;;;;;;1.38;1.25;;;;;;;14.14;84.64;100955.81;5071560;29;20078;-79
2022/10/02 04:01:01;;;;;;;3.03;2.72;;;;;;;14.17;84.74;100966.22;5089362;29;20055;-80
2022/10/02 04:03:42;;;;;;;0.40;0.40;;;;;;;14.13;85.64;100967.28;5071251;29;20113;-80
2022/10/02 04:06:34;;;;;;;0.65;0.65;;;;;;;14.10;86.09;100962.09;5058798;29;20043;-81
2022/10/02 04:09:30;;;;;;;3.22;1.60;;;;;;;14.08;86.56;100960.47;5055661;29;20043;-80
2022/10/02 04:12:10;;;;;;;0.30;0.30;;;;;;;14.04;87.06;100958.88;5073306;29;20076;-81
2022/10/02 04:14:52;;;;;;;1.02;1.00;;;;;;;14.11;86.56;100969.13;5073099;29;20042;-80
2022/10/02 04:17:22;;;;;;;0.98;0.90;;;;;;;14.07;87.07;100975.44;5091134;29;20107;-82
2022/10/02 04:20:02;;;;;;;2.88;0.75;;;;;;;14.13;86.42;100964.66;5076901;29;20107;-80
2022/10/02 04:22:40;;;;;;;0.70;0.70;;;;;;;14.08;86.85;100963.97;5083935;29;20558;-81
2022/10/02 04:25:18;;;;;;;1.75;1.33;;;;;;;14.00;87.08;100968.69;5089585;29;20059;-80
2022/10/02 04:27:57;;;;;;;1.90;1.80;;;;;;;14.05;86.80;100973.78;5066944;29;20044;-81
2022/10/02 04:30:29;;;;;;;0.63;0.63;;;;;;;14.04;86.53;100967.63;5052882;29;20032;-81
2022/10/02 04:33:11;;;;;;;1.27;1.15;;;;;;;14.04;86.41;100962.34;5073240;29;20050;-81
2022/10/02 04:35:51;;;;;;;3.20;1.75;;;;;;;14.07;86.02;100967.53;5052408;29;20036;-80
2022/10/02 04:38:27;;;;;;;0.55;0.55;;;;;;;14.04;86.23;100969.41;5084403;29;20044;-81
2022/10/02 04:41:09;;;;;;;0.40;0.40;;;;;;;14.12;85.66;100977.91;5076766;29;20043;-81
2022/10/02 04:43:55;;;;;;;1.17;1.00;;;;;;;14.11;85.44;100970.91;5077457;29;20074;-81
2022/10/02 04:46:47;;;;;;;3.70;1.55;;;;;;;14.04;85.94;100977.34;5059334;29;20057;-81
2022/10/02 04:49:36;;;;;;;7.43;0.88;;;;;;;14.07;85.45;100982.47;5070268;29;20134;-81
2022/10/02 04:52:31;;;;;;;0.65;0.65;;;;;;;14.07;85.62;100986.00;5106468;29;20469;-81
2022/10/02 04:55:34;;;;;;;6.30;2.13;;;;;;;14.14;84.99;100978.69;5087782;29;20040;-80
2022/10/02 04:58:31;;;;;;;3.47;2.17;;;;;;;14.04;85.41;100990.53;5086080;29;20737;-81
2022/10/02 05:01:41;;;;;;;0.32;0.32;;;;;;;14.01;86.21;100986.19;5093000;29;20031;-81
2022/10/02 05:04:31;;;;;;;2.22;0.82;;;;;;;13.99;86.31;100977.50;5065845;29;20051;-81
2022/10/02 05:07:41;;;;;;;3.40;1.20;;;;;;;13.98;86.17;100979.25;5090853;29;20095;-81
2022/10/02 05:10:37;;;;;;;2.38;1.23;;;;;;;13.99;86.20;100982.78;5035718;29;20071;-81
2022/10/02 05:13:33;;;;;;;0.30;0.30;;;;;;;13.94;86.49;100980.31;5079669;29;20060;-81
2022/10/02 05:16:06;;;;;;;0.57;0.57;;;;;;;13.99;86.39;100994.19;5089506;29;20527;-81
2022/10/02 05:19:01;;;;;;;1.45;0.55;;;;;;;13.95;86.16;100991.72;5085830;29;20527;-80
2022/10/02 05:22:01;;;;;;;1.75;1.65;;;;;;;13.93;87.00;100985.63;5072484;29;20035;-81
2022/10/02 05:24:49;;;;;;;0.20;0.20;;;;;;;13.94;86.74;100987.34;5079947;29;20042;-81
2022/10/02 05:27:36;;;;;;;0.30;0.30;;;;;;;13.98;85.84;100991.59;5091907;29;20297;-81
2022/10/02 05:30:16;;;;;;;0.30;0.30;;;;;;;14.02;85.98;101001.13;5076831;29;20039;-82
2022/10/02 05:32:58;;;;;;;0.30;0.30;;;;;;;14.01;85.90;100996.75;5089197;29;20046;-81
2022/10/02 05:35:38;;;;;;;1.00;0.95;;;;;;;13.96;86.35;100993.44;5088950;29;20035;-81
2022/10/02 05:38:25;;;;;;;0.40;0.40;;;;;;;13.96;86.11;101002.22;5082501;29;20043;-81
2022/10/02 05:41:17;;;;;;;0.35;0.35;;;;;;;14.01;85.44;101012.59;5075083;29;20035;-82
2022/10/02 05:43:58;;;;;;;0.43;0.43;;;;;;;14.02;85.56;101001.13;5076251;29;20044;-81
2022/10/02 05:46:35;;;;;;;0.75;0.47;;;;;;;14.01;85.80;101002.03;5080191;29;20131;-81
2022/10/02 05:49:14;;;;;;;2.88;0.95;;;;;;;14.20;84.54;100998.72;5072798;29;20052;-81
2022/10/02 05:51:58;;;;;;;2.65;0.80;;;;;;;14.02;85.42;101001.13;5073314;29;20078;-84
2022/10/02 05:54:48;;;;;;;0.20;0.20;;;;;;;14.12;84.71;101005.13;5055470;29;20331;-84
2022/10/02 05:57:32;;;;;;;0.30;0.30;;;;;;;14.05;84.95;101014.22;5072831;29;20044;-83
2022/10/02 06:00:25;;;;;;;0.30;0.30;;;;;;;14.10;84.63;101021.94;5088619;29;20063;-83
2022/10/02 06:03:08;;;;;;;;;;;;;;;14.08;85.04;101019.38;5087503;29;20393;-82
2022/10/02 06:05:54;;;;;;;2.75;1.15;;;;;;;14.07;84.75;101022.06;5088078;29;19915;-83
2022/10/02 06:08:32;;;;;;;0.68;0.68;;;;;;;14.01;84.90;101023.13;5058180;29;20115;-83
2022/10/02 06:11:14;;;;;;;4.00;2.15;;;;;;;14.03;84.63;101031.00;5074622;29;20036;-83
2022/10/02 06:14:01;;;;;;;4.25;1.17;;;;;;;14.04;83.88;101049.41;5075596;29;20103;-84
2022/10/02 06:16:34;;;;;;;0.40;0.40;;;;;;;14.03;84.21;101047.69;5084907;29;20122;-86
2022/10/02 06:19:14;;;;;;;0.20;0.20;;;;;;;14.12;83.80;101055.28;5066818;29;20392;-83
2022/10/02 06:22:10;;;;;;;0.30;0.30;;;;;;;14.11;83.79;101055.34;5051124;29;20582;-83
2022/10/02 06:24:53;;;;;;;0.30;0.30;;;;;;;14.20;83.35;101048.84;5100867;29;20142;-83
2022/10/02 06:27:35;;;;;;;0.35;0.35;;;;;;;14.16;83.55;101054.25;5067960;29;20045;-83
2022/10/02 06:30:14;;;;;;;0.50;0.50;;;;;;;14.24;83.35;101055.75;5051392;29;20035;-83
2022/10/02 06:32:54;;;;;;;0.82;0.77;;;;;;;14.23;83.15;101059.31;5064407;29;20107;-84
2022/10/02 06:35:36;;;;;;;3.70;1.50;;;;;;;14.14;84.24;101060.47;5084119;29;20380;-83
2022/10/02 06:38:41;;;;;;;0.20;0.20;;;;;;;14.20;83.51;101054.13;5051849;29;20048;-84
2022/10/02 06:41:11;;;;;;;0.50;0.50;;;;;;;14.21;83.48;101066.41;5080979;29;20043;-83
2022/10/02 06:44:26;;;;;;;0.30;0.30;;;;;;;14.19;84.06;101062.97;5056057;29;20055;-83
2022/10/02 06:47:03;;;;;;;2.05;1.23;;;;;;;14.06;85.05;101073.97;5085531;29;20044;-83
2022/10/02 06:49:58;;;;;;;0.20;0.20;;;;;;;14.10;84.24;101072.94;5062672;29;20130;-84
2022/10/02 06:52:38;;;;;;;0.95;0.95;;;;;;;14.23;83.42;101075.13;5073068;29;20683;-83
2022/10/02 06:55:47;;;;;;;1.88;1.33;;;;;;;14.23;83.79;101067.22;5070200;29;20043;-85
2022/10/02 06:58:54;;;;;;;0.55;0.55;;;;;;;14.20;83.84;101075.25;5070372;29;20040;-84
2022/10/02 07:01:45;;;;;;;0.38;0.35;;;;;;;14.21;83.81;101074.31;5040423;29;20039;-85
2022/10/02 07:04:35;;;;;;;0.63;0.63;;;;;;;14.22;83.68;101083.97;5051029;29;20059;-85
2022/10/02 07:07:11;;;;;;;0.57;0.50;;;;;;;14.23;83.45;101083.06;5076855;29;20135;-84
2022/10/02 07:10:28;;;;;;;0.60;0.60;;;;;;;14.30;82.88;101081.91;5063675;29;20051;-85
2022/10/02 07:13:08;;;;;;;0.20;0.20;;;;;;;14.32;82.84;101085.38;5055940;29;20048;-83
2022/10/02 07:16:06;;;;;;;1.02;0.65;;;;;;;14.24;83.19;101082.13;5055807;29;20409;-84
2022/10/02 07:19:15;;;;;;;0.20;0.20;;;;;;;14.19;83.40;101084.06;5047190;29;20051;-85
2022/10/02 07:22:10;;;;;;;0.52;0.52;;;;;;;14.30;82.87;101097.75;5100483;29;20040;-84
2022/10/02 07:25:09;;;;;;;0.20;0.20;;;;;;;14.25;83.59;101107.63;5077226;29;20080;-85
2022/10/02 07:27:54;;;;;;;0.52;0.52;;;;;;;14.22;83.29;101103.28;5084837;29;20051;-84
2022/10/02 07:30:34;;;;;;;0.20;0.20;;;;;;;14.26;83.04;101107.56;5055248;29;20047;-84
2022/10/02 07:33:14;;;;;;;3.25;1.38;;;;;;;14.24;82.70;101113.81;5061375;29;20050;-84
2022/10/02 07:36:13;;;;;;;1.45;1.35;;;;;;;14.15;82.99;101110.59;5055257;29;20042;-84
2022/10/02 07:38:49;;;;;;;1.08;0.90;;;;;;;14.26;82.46;101097.00;5050119;29;20600;-84
2022/10/02 07:41:39;;;;;;;0.20;0.20;;;;;;;14.12;82.61;101110.69;5058469;29;20533;-84
2022/10/02 07:44:39;;;;;;;1.17;1.15;;;;;;;14.15;82.89;101122.91;5071696;29;20577;-84
2022/10/02 07:47:25;;;;;;;1.65;1.05;;;;;;;14.26;82.24;101118.13;5063995;29;20046;-84
2022/10/02 07:50:10;;;;;;;0.20;0.20;;;;;;;14.26;82.39;101127.78;5089880;29;20661;-82
2022/10/02 07:53:16;;;;;;;0.20;0.20;;;;;;;14.22;82.38;101124.41;5079283;29;20052;-84
2022/10/02 07:55:54;;;;;;;1.35;0.73;;;;;;;14.15;82.80;101129.06;4974324;29;20045;-84
2022/10/02 07:58:52;;;;;;;0.35;0.35;;;;;;;14.28;82.15;101133.88;5051066;29;20080;-84
2022/10/02 08:01:29;;;;;;;0.30;0.30;;;;;;;14.32;81.55;101132.88;5100983;29;20043;-84
2022/10/02 08:04:05;;;;;;;0.20;0.20;;;;;;;14.28;82.10;101131.25;5053720;29;20093;-84
2022/10/02 08:06:36;;;;;;;0.40;0.40;;;;;;;14.36;81.91;101125.69;5073104;29;20062;-83
2022/10/02 08:09:20;;;;;;;5.63;0.95;;;;;;;14.37;81.63;101128.28;5072143;29;20045;-83
2022/10/02 08:11:57;;;;;;;0.52;0.52;;;;;;;14.37;81.84;101125.63;5084669;29;20042;-84
2022/10/02 08:14:36;;;;;;;0.40;0.40;;;;;;;14.32;82.31;101139.00;5068694;29;20107;-83
2022/10/02 08:17:22;;;;;;;0.30;0.30;;;;;;;14.44;81.94;101137.69;5067044;29;20067;-83
2022/10/02 08:19:58;;;;;;;1.00;0.85;;;;;;;14.38;81.84;101142.34;5062983;29;20125;-82
2022/10/02 08:22:29;;;;;;;0.73;0.73;;;;;;;14.44;81.54;101145.59;5078292;29;20043;-82
2022/10/02 08:25:06;;;;;;;1.88;1.73;;;;;;;14.36;81.97;101147.66;5056245;29;20112;-84
2022/10/02 08:27:40;;;;;;;0.93;0.93;;;;;;;14.33;81.99;101143.38;5092949;29;20052;-83
2022/10/02 08:30:13;;;;;;;0.20;0.20;;;;;;;14.41;81.59;101153.66;5065513;29;20099;-82
2022/10/02 08:32:46;;;;;;;0.20;0.20;;;;;;;14.42;81.48;101150.06;5068142;29;20082;-85
2022/10/02 08:35:18;;;;;;;0.85;0.85;;;;;;;14.46;81.62;101154.34;5056443;29;20067;-82
2022/10/02 08:38:30;;;;;;;0.20;0.20;;;;;;;14.40;81.53;101148.41;5047003;29;20046;-83
2022/10/02 08:41:17;;;;;;;1.00;0.60;;;;;;;14.43;81.47;101151.81;5065294;29;20048;-84
2022/10/02 08:44:23;;;;;;;1.05;0.95;;;;;;;14.45;81.48;101159.69;5051540;29;20043;-82
2022/10/02 08:47:09;;;;;;;0.43;0.43;;;;;;;14.43;81.22;101162.34;5071740;29;20107;-85
2022/10/02 08:49:43;;;;;;;0.40;0.40;;;;;;;14.48;81.12;101175.41;5098482;29;20054;-83
2022/10/02 08:52:31;;;;;;;;;;;;;;;14.50;81.00;101167.44;5068412;29;20142;-84
2022/10/02 08:55:28;;;;;;;0.80;0.57;;;;;;;14.46;80.87;101171.97;5098958;29;19978;-83
2022/10/02 08:58:20;;;;;;;1.00;0.75;;;;;;;14.48;81.00;101183.31;5047769;29;20074;-82
2022/10/02 09:01:02;;;;;;;0.35;0.35;;;;;;;14.62;80.44;101178.41;5064906;29;20554;-83
2022/10/02 09:03:56;;;;;;;0.28;0.28;;;;;;;14.67;80.20;101186.19;5065122;29;20694;-83
2022/10/02 09:06:39;;;;;;;1.35;0.52;;;;;;;14.75;79.85;101184.13;5032556;29;20075;-84
2022/10/02 09:09:25;;;;;;;0.43;0.43;;;;;;;14.64;80.02;101189.75;5060828;29;20052;-84
2022/10/02 09:12:04;;;;;;;0.20;0.20;;;;;;;14.65;80.58;101188.00;5067150;29;20032;-83
2022/10/02 09:15:17;;;;;;;0.40;0.40;;;;;;;14.66;79.97;101192.41;5064672;29;20048;-83
2022/10/02 09:18:17;;;;;;;0.52;0.43;;;;;;;14.81;79.93;101193.59;5061785;29;20044;-84
2022/10/02 09:21:00;;;;;;;0.40;0.40;;;;;;;14.73;80.14;101193.91;5081399;29;20632;-83
2022/10/02 09:23:39;;;;;;;0.30;0.30;;;;;;;14.76;80.12;101188.47;5050055;29;20054;-83
2022/10/02 09:26:48;;;;;;;0.20;0.20;;;;;;;14.85;79.98;101183.78;5050272;29;20040;-83
2022/10/02 09:29:43;;;;;;;0.20;0.20;;;;;;;14.82;80.07;101195.31;5064948;29;20052;-83
2022/10/02 09:32:31;;;;;;;2.55;1.38;;;;;;;14.84;79.89;101182.03;5101201;29;20043;-84
2022/10/02 09:35:24;;;;;;;0.57;0.57;;;;;;;14.87;80.03;101179.31;5070832;29;20059;-83
2022/10/02 09:38:27;;;;;;;1.95;0.65;;;;;;;14.95;79.71;101182.50;5056597;29;20044;-84
2022/10/02 09:41:19;;;;;;;0.28;0.28;;;;;;;14.99;79.73;101178.84;5034763;29;20050;-83
2022/10/02 09:44:19;;;;;;;0.20;0.20;;;;;;;15.13;79.08;101177.44;5083283;29;20032;-83
2022/10/02 09:46:56;;;;;;;0.20;0.20;;;;;;;15.11;78.97;101180.16;5068877;29;20048;-83
2022/10/02 09:49:35;;;;;;;0.47;0.40;;;;;;;15.11;78.67;101180.16;5053640;29;20051;-85
2022/10/02 09:52:34;;;;;;;0.20;0.20;;;;;;;15.20;78.66;101200.06;5068977;29;20043;-85
2022/10/02 09:55:48;;;;;;;0.20;0.20;;;;;;;15.20;78.29;101197.44;5059890;29;20307;-87
2022/10/02 09:59:09;;;;;;;0.35;0.35;;;;;;;15.33;77.60;101201.31;5054777;29;20063;-85
2022/10/02 10:02:30;;;;;;;1.77;1.65;;;;;;;15.27;78.03;101199.78;5099259;29;20047;-85
2022/10/02 10:05:56;;;;;;;1.20;1.10;;;;;;;15.27;78.49;101196.25;5098818;29;20133;-84
2022/10/02 10:08:55;;;;;;;1.25;0.95;;;;;;;15.27;78.42;101191.84;5023180;29;21447;-84
2022/10/02 10:12:04;;;;;;;0.38;0.38;;;;;;;15.38;78.14;101203.75;5064347;29;20044;-84
2022/10/02 10:14:48;;;;;;;0.60;0.60;;;;;;;15.33;78.53;101203.94;5071493;28;20235;-84
2022/10/02 10:17:47;;;;;;;0.75;0.75;;;;;;;15.49;78.15;101201.56;5053623;29;20039;-83
2022/10/02 10:21:08;;;;;;;0.43;0.43;;;;;;;15.49;78.16;101203.38;5083193;29;20447;-86
2022/10/02 10:24:13;;;;;;;0.20;0.20;;;;;;;15.48;77.69;101202.47;5044017;29;20047;-85
2022/10/02 10:26:59;;;;;;;0.50;0.50;;;;;;;15.53;77.70;101202.31;5069928;29;20040;-84
2022/10/02 10:30:02;;;;;;;0.60;0.55;;;;;;;15.56;78.00;101208.31;5071409;29;20259;-85
2022/10/02 10:32:51;;;;;;;1.30;1.05;;;;;;;15.72;77.05;101215.63;5070997;29;20055;-81
2022/10/02 10:38:31;;;;;;;0.50;0.50;;;;;;;15.67;77.13;101213.19;5056048;29;20044;-83
2022/10/02 10:39:40;;;;;;;0.28;0.28;;;;;;;15.76;77.34;101216.38;5066604;29;20109;-84
2022/10/02 10:42:27;;;;;;;0.30;0.30;;;;;;;15.77;76.62;101218.09;5085129;29;20095;-83
2022/10/02 10:45:10;;;;;;;0.60;0.60;;;;;;;15.80;76.85;101226.75;5078060;29;20043;-85
2022/10/02 10:48:05;;;;;;;0.20;0.20;;;;;;;15.84;76.63;101235.47;5110583;29;20047;-87
2022/10/02 10:50:49;;;;;;;0.30;0.30;;;;;;;15.86;76.58;101238.91;5103129;29;20105;-86
2022/10/02 10:53:40;;;;;;;0.22;0.22;;;;;;;15.82;76.50;101232.88;5087577;29;20043;-87
2022/10/02 10:56:41;;;;;;;0.30;0.30;;;;;;;15.91;76.63;101236.94;5075884;29;20055;-86
2022/10/02 10:59:52;;;;;;;0.20;0.20;;;;;;;16.01;76.06;101240.94;5053929;29;20059;-85
2022/10/02 11:02:57;;;;;;;0.30;0.30;;;;;;;16.08;75.91;101246.84;5073216;29;20039;-83
2022/10/02 11:05:54;;;;;;;1.98;1.33;;;;;;;16.13;75.95;101246.66;5071205;29;20364;-83
2022/10/02 11:08:54;;;;;;;0.28;0.28;;;;;;;16.16;74.61;101255.31;5103532;29;20311;-86
2022/10/02 11:11:28;;;;;;;1.33;0.30;;;;;;;16.23;74.17;101261.22;5062758;29;20099;-84
2022/10/02 11:14:18;;;;;;;0.30;0.30;;;;;;;16.29;74.26;101263.59;5069749;29;20077;-84
2022/10/02 11:17:13;;;;;;;0.75;0.75;;;;;;;16.33;73.72;101253.75;5061634;29;20078;-85
2022/10/02 11:20:04;;;;;;;2.08;1.33;;;;;;;16.28;73.73;101259.22;5074417;29;20032;-86
2022/10/02 11:22:44;;;;;;;0.57;0.57;;;;;;;16.35;73.59;101252.75;5089411;29;20054;-86
2022/10/02 11:25:48;;;;;;;0.40;0.40;;;;;;;16.50;73.37;101258.28;5058199;29;20623;-85
2022/10/02 11:28:40;;;;;;;0.20;0.20;;;;;;;16.59;72.90;101262.34;5056404;29;20047;-83
2022/10/02 11:31:20;;;;;;;0.30;0.30;;;;;;;16.72;73.14;101263.53;5095138;29;20051;-84
2022/10/02 11:33:53;;;;;;;0.80;0.70;;;;;;;16.67;73.59;101266.38;5086859;29;20051;-84
2022/10/02 11:36:51;;;;;;;0.30;0.30;;;;;;;16.67;72.33;101274.31;5073418;29;20040;-85
2022/10/02 11:39:31;;;;;;;2.97;1.70;;;;;;;16.56;73.13;101268.66;5057091;29;20044;-85
2022/10/02 11:42:32;;;;;;;0.52;0.50;;;;;;;16.59;73.14;101262.34;5098313;29;20032;-85
2022/10/02 11:45:33;;;;;;;0.40;0.40;;;;;;;16.65;72.45;101259.44;5022429;29;20103;-83
2022/10/02 11:48:30;;;;;;;0.95;0.95;;;;;;;16.73;71.70;101262.59;5070447;29;20131;-84
2022/10/02 11:51:27;;;;;;;0.20;0.20;;;;;;;16.89;72.33;101260.13;5090688;29;20031;-84
2022/10/02 11:54:22;;;;;;;0.20;0.20;;;;;;;16.88;71.07;101258.41;5036360;29;20105;-85
2022/10/02 11:57:10;;;;;;;0.70;0.70;;;;;;;16.97;70.29;101267.75;5110115;23;21568;-82
2022/10/02 12:00:03;;;;;;;0.30;0.30;;;;;;;16.96;71.26;101269.56;5090375;28;20649;-82
2022/10/02 12:02:42;;;;;;;8.07;0.57;;;;;;;16.90;70.92;101268.94;5121138;28;20161;-80
2022/10/02 12:05:38;;;;;;;0.75;0.73;;;;;;;16.93;70.96;101272.34;5131871;28;20117;-81
2022/10/02 12:08:23;;;;;;;0.30;0.30;;;;;;;16.94;71.03;101279.38;5080518;28;20053;-80
2022/10/02 12:11:21;;;;;;;0.32;0.32;;;;;;;17.05;70.42;101273.56;5126042;28;20049;-77
2022/10/02 12:14:29;;;;;;;0.30;0.30;;;;;;;17.19;70.72;101277.41;5113845;28;20415;-80
2022/10/02 12:17:30;;;;;;;0.30;0.30;;;;;;;17.33;69.56;101266.13;5103558;28;20140;-80
2022/10/02 12:27:08;;;;;;;0.90;0.60;;;;;;;17.36;66.69;101279.25;5111727;28;20114;-82
2022/10/02 12:29:53;;;;;;;0.35;0.30;;;;;;;17.41;66.73;101277.22;5072312;28;20066;-82
2022/10/02 12:32:39;;;;;;;1.00;1.00;;;;;;;17.41;66.67;101279.88;5105144;28;20054;-82
2022/10/02 12:35:30;;;;;;;1.60;1.33;;;;;;;17.48;66.75;101268.06;5111010;28;20445;-81
2022/10/02 12:38:41;;;;;;;1.23;1.23;;;;;;;17.40;66.79;101265.78;5124019;28;20098;-82
2022/10/02 12:41:37;;;;;;;1.27;1.17;;;;;;;17.44;67.12;101266.50;5127153;28;20038;-79
2022/10/02 12:44:46;;;;;;;0.45;0.45;;;;;;;17.44;66.37;101264.69;5111982;28;20042;-82
2022/10/02 12:47:31;;;;;;;0.30;0.30;;;;;;;17.46;67.14;101260.16;5083862;28;20042;-80
2022/10/02 12:50:07;;;;;;;0.30;0.30;;;;;;;17.46;67.54;101265.47;5102007;28;20566;-82
2022/10/02 12:52:58;;;;;;;0.82;0.82;;;;;;;17.53;66.94;101260.75;5090701;28;20050;-82
2022/10/02 12:55:36;;;;;;;3.95;2.05;;;;;;;17.57;66.47;101256.16;5124526;28;20101;-83
2022/10/02 12:58:21;;;;;;;2.28;1.35;;;;;;;17.71;66.20;101258.16;5113276;28;20072;-80
2022/10/02 13:01:17;;;;;;;1.05;1.02;;;;;;;17.72;64.89;101260.72;5108323;28;20039;-82
2022/10/02 13:04:25;;;;;;;0.52;0.38;;;;;;;17.69;62.78;101265.31;5101418;28;20043;-82
2022/10/02 13:07:18;;;;;;;4.22;1.52;;;;;;;17.72;64.33;101266.03;5107419;28;20145;-81